Search for airport 
image banner adimage banner adimage banner ad
image banner ad

1PN1 - Napodano

Located in Transfer, United States

ICAO - 1PN1, IATA -

Data provided by Airmate  

General information

Coordinates: N41°20'3" W80°25'14"
Elevation is 1060 feet MSL.
Magnetic variation is -08° East
View others Airports in Pennsylvania

Operational data

Special qualification required
Current time UTC:
Current local time:
Weather at : KYNG - Youngstown-Warren Rgnl ( 23 km )
METAR: KYNG 182351Z 00000KT 10SM FEW200 SCT250 23/07 A3029 RMK AO2 SLP253 T02330067 10267 20233 55005
TAF: KYNG 182320Z 1900/1924 VRB03KT P6SM BKN250
View NOTAMs / SUP AIP / TFR affecting this airport [VIEW]
Communications frequencies: [VIEW]

Runways:

RWY identifierQFULength (ft)Width (ft)SurfaceLDA (ft)
N1500150GRASS
S1500150GRASS

Airport contact information

Address: Transfer United States

Satellite view of 1PN1